createdAt,value
2018-07-23T00:00:06.141Z,7.67
2018-07-23T00:04:09.481Z,5.43
2018-07-23T00:08:12.722Z,6.23
2018-07-23T00:12:15.997Z,7.27
2018-07-23T00:16:19.322Z,0.00
2018-07-23T00:20:22.573Z,2.47
2018-07-23T00:24:25.831Z,0.00
2018-07-23T00:28:30.099Z,0.00
2018-07-23T00:32:33.328Z,0.00
2018-07-23T00:36:36.604Z,0.00
2018-07-23T00:40:39.877Z,0.03
2018-07-23T00:44:43.142Z,0.00
2018-07-23T00:48:46.469Z,0.00
2018-07-23T00:52:49.757Z,0.00
2018-07-23T00:56:53.085Z,0.00
2018-07-23T01:00:56.349Z,0.00
2018-07-23T01:04:59.637Z,0.00
2018-07-23T01:09:03.017Z,0.00
2018-07-23T01:13:06.301Z,0.00
2018-07-23T01:17:09.781Z,0.00
2018-07-23T01:21:13.157Z,0.00
2018-07-23T01:25:16.493Z,0.03
2018-07-23T01:29:19.794Z,0.00
2018-07-23T01:33:23.091Z,0.00
2018-07-23T01:37:27.628Z,2.60
2018-07-23T01:41:31.063Z,0.43
2018-07-23T01:45:34.394Z,0.10
2018-07-23T01:49:37.663Z,0.00
2018-07-23T01:53:40.902Z,0.00
2018-07-23T01:57:44.161Z,0.00
2018-07-23T02:01:47.473Z,0.00
2018-07-23T02:05:50.786Z,0.00
2018-07-23T02:09:54.102Z,0.00
2018-07-23T02:13:58.045Z,0.00
2018-07-23T02:18:01.350Z,0.00
2018-07-23T02:22:04.642Z,0.00
2018-07-23T02:26:07.906Z,0.00
2018-07-23T02:30:11.161Z,0.00
2018-07-23T02:34:14.441Z,0.00
2018-07-23T02:38:17.721Z,0.00
2018-07-23T02:42:21.008Z,0.00
2018-07-23T02:46:24.259Z,0.00
2018-07-23T02:50:27.545Z,0.07
2018-07-23T02:54:30.796Z,0.00
2018-07-23T02:58:34.062Z,0.00
2018-07-23T03:02:37.333Z,0.00
2018-07-23T03:06:40.612Z,0.30
2018-07-23T03:10:43.906Z,0.30
2018-07-23T03:14:47.196Z,0.00
2018-07-23T03:18:51.161Z,0.10
2018-07-23T03:22:54.469Z,0.00
2018-07-23T03:26:57.776Z,0.10
2018-07-23T03:31:01.174Z,0.00
2018-07-23T03:35:04.488Z,0.00
2018-07-23T03:39:08.921Z,0.00
2018-07-23T03:43:12.205Z,0.00
2018-07-23T03:47:15.541Z,0.00
2018-07-23T03:51:18.843Z,0.00
2018-07-23T03:55:22.108Z,0.00
2018-07-23T03:59:25.470Z,0.10
2018-07-23T04:03:28.787Z,0.10
2018-07-23T04:07:32.021Z,0.00
2018-07-23T04:11:35.321Z,0.83
2018-07-23T04:15:38.639Z,0.10
2018-07-23T04:19:41.901Z,0.00
2018-07-23T04:23:45.137Z,0.00
2018-07-23T04:27:48.382Z,0.00
2018-07-23T04:31:51.643Z,0.10
2018-07-23T04:35:54.921Z,0.00
2018-07-23T04:39:58.184Z,0.00
2018-07-23T04:44:01.497Z,0.00
2018-07-23T04:48:04.761Z,0.00
2018-07-23T04:52:08.013Z,0.00
2018-07-23T04:56:11.272Z,1.13
2018-07-23T05:00:15.241Z,0.00
2018-07-23T05:04:18.495Z,0.10
2018-07-23T05:08:21.957Z,0.07
2018-07-23T05:12:25.207Z,0.00
2018-07-23T05:16:28.511Z,0.00
2018-07-23T05:20:31.774Z,0.00
2018-07-23T05:24:35.053Z,0.00
2018-07-23T05:28:38.292Z,0.00
2018-07-23T05:32:41.567Z,0.20
2018-07-23T05:36:44.809Z,1.20
2018-07-23T05:40:48.093Z,0.00
2018-07-23T05:44:51.341Z,0.00
2018-07-23T05:48:55.489Z,0.00
2018-07-23T05:52:58.773Z,0.00
2018-07-23T05:57:02.025Z,2.63
2018-07-23T06:01:05.296Z,0.00
2018-07-23T06:05:08.527Z,0.00
2018-07-23T06:09:11.770Z,0.00
2018-07-23T06:13:15.087Z,0.00
2018-07-23T06:17:18.294Z,0.40
2018-07-23T06:21:21.533Z,0.10
2018-07-23T06:25:24.857Z,0.00
2018-07-23T06:29:28.105Z,0.00
2018-07-23T06:33:31.345Z,4.62
2018-07-23T06:37:35.153Z,13.05
2018-07-23T06:41:38.808Z,15.00
2018-07-23T06:45:42.077Z,12.23
2018-07-23T06:49:45.358Z,9.50
2018-07-23T06:53:48.602Z,13.03
2018-07-23T06:57:51.913Z,15.80
2018-07-23T07:01:55.182Z,14.33
2018-07-23T07:05:58.441Z,15.53
2018-07-23T07:10:01.689Z,16.57
2018-07-23T07:14:05.167Z,15.08
2018-07-23T07:18:08.410Z,17.52
2018-07-23T07:22:11.701Z,16.60
2018-07-23T07:26:14.968Z,16.77
2018-07-23T07:30:18.229Z,15.40
2018-07-23T07:34:21.467Z,15.10
2018-07-23T07:38:24.800Z,12.18
2018-07-23T07:42:28.161Z,14.28
2018-07-23T07:46:31.437Z,13.95
2018-07-23T07:50:34.688Z,15.08
2018-07-23T07:54:37.930Z,14.60
2018-07-23T07:58:41.182Z,14.47
2018-07-23T08:02:44.465Z,15.68
2018-07-23T08:06:47.760Z,12.95
2018-07-23T08:10:51.105Z,16.50
2018-07-23T08:14:54.362Z,14.60
2018-07-23T08:18:57.632Z,18.77
2018-07-23T08:23:01.206Z,16.15
2018-07-23T08:27:04.185Z,14.70
2018-07-23T08:31:07.458Z,12.68
2018-07-23T08:35:10.702Z,14.75
2018-07-23T08:39:13.969Z,13.28
2018-07-23T08:43:17.677Z,15.93
2018-07-23T08:47:20.931Z,19.90
2018-07-23T08:51:24.197Z,15.30
2018-07-23T08:55:27.813Z,12.00
2018-07-23T08:59:31.508Z,11.80
2018-07-23T09:03:34.774Z,12.10
2018-07-23T09:07:38.065Z,10.58
2018-07-23T09:11:41.553Z,14.85
2018-07-23T09:15:44.788Z,15.85
2018-07-23T09:19:48.029Z,12.98
2018-07-23T09:23:51.303Z,14.45
2018-07-23T09:27:54.611Z,10.80
2018-07-23T09:31:57.881Z,15.28
2018-07-23T09:36:01.142Z,12.88
2018-07-23T09:40:04.462Z,13.28
2018-07-23T09:44:07.723Z,14.65
2018-07-23T09:48:10.973Z,11.80
2018-07-23T09:52:14.235Z,11.57
2018-07-23T09:56:17.485Z,10.95
2018-07-23T10:00:26.118Z,10.65
2018-07-23T10:04:29.369Z,9.30
2018-07-23T10:08:32.648Z,10.43
2018-07-23T10:12:35.914Z,10.15
2018-07-23T10:16:39.185Z,12.37
2018-07-23T10:20:42.417Z,11.80
2018-07-23T10:24:45.677Z,9.60
2018-07-23T10:28:48.909Z,9.68
2018-07-23T10:32:52.157Z,11.38
2018-07-23T10:36:55.398Z,13.68
2018-07-23T10:40:59.487Z,7.97
2018-07-23T10:45:02.770Z,9.45
2018-07-23T10:49:06.041Z,8.85
2018-07-23T10:53:09.028Z,7.37
2018-07-23T10:57:12.408Z,8.25
2018-07-23T11:01:15.716Z,7.83
2018-07-23T11:05:18.986Z,8.30
2018-07-23T11:09:22.237Z,7.15
2018-07-23T11:13:25.595Z,10.32
2018-07-23T11:17:28.890Z,10.55
2018-07-23T11:21:32.230Z,7.50
2018-07-23T11:25:39.635Z,14.23
2018-07-23T11:29:38.821Z,7.47
2018-07-23T11:33:42.029Z,7.85
2018-07-23T11:37:45.907Z,10.03
2018-07-23T11:41:49.145Z,7.67
2018-07-23T11:45:52.392Z,8.48
2018-07-23T11:49:55.633Z,8.75
2018-07-23T11:53:58.873Z,6.70
2018-07-23T11:58:02.114Z,10.75
2018-07-23T12:02:05.706Z,9.78
2018-07-23T12:06:08.957Z,10.58
2018-07-23T12:10:12.285Z,8.18
2018-07-23T12:14:15.557Z,6.92
2018-07-23T12:18:18.813Z,8.53
2018-07-23T12:22:22.070Z,13.30
2018-07-23T12:26:25.302Z,7.58
2018-07-23T12:30:28.558Z,8.60
2018-07-23T12:34:31.821Z,10.18
2018-07-23T12:38:35.082Z,9.55
2018-07-23T12:42:38.042Z,10.45
2018-07-23T12:46:41.288Z,9.53
2018-07-23T12:50:44.510Z,8.78
2018-07-23T12:54:47.781Z,6.87
2018-07-23T12:58:51.118Z,7.05
2018-07-23T13:02:54.420Z,11.68
2018-07-23T13:06:57.729Z,6.80
2018-07-23T13:11:00.973Z,6.95
2018-07-23T13:15:04.848Z,5.50
2018-07-23T13:19:08.127Z,8.70
2018-07-23T13:23:11.435Z,6.47
2018-07-23T13:27:14.693Z,6.55
2018-07-23T13:31:17.977Z,5.58
2018-07-23T13:35:21.242Z,4.95
2018-07-23T13:39:24.540Z,9.40
2018-07-23T13:43:27.785Z,4.58
2018-07-23T13:47:31.049Z,4.90
2018-07-23T13:51:34.650Z,4.60
2018-07-23T13:55:37.896Z,6.15
2018-07-23T13:59:41.169Z,5.85
2018-07-23T14:03:44.412Z,5.72
2018-07-23T14:07:47.663Z,3.40
2018-07-23T14:11:50.949Z,5.50
2018-07-23T14:15:54.257Z,3.72
2018-07-23T14:19:58.365Z,3.92
2018-07-23T14:24:01.609Z,3.47
2018-07-23T14:28:04.906Z,5.30
2018-07-23T14:32:08.157Z,3.95
2018-07-23T14:36:11.120Z,6.08
2018-07-23T14:40:14.369Z,4.37
2018-07-23T14:44:17.608Z,5.47
2018-07-23T14:48:20.854Z,4.10
2018-07-23T14:52:24.166Z,5.20
2018-07-23T14:56:27.428Z,4.45
2018-07-23T15:00:30.645Z,6.80
2018-07-23T15:04:33.927Z,7.03
2018-07-23T15:08:37.170Z,4.80
2018-07-23T15:12:40.421Z,4.80
2018-07-23T15:16:43.685Z,4.78
2018-07-23T15:20:46.934Z,6.70
2018-07-23T15:24:50.181Z,5.00
2018-07-23T15:28:53.437Z,4.42
2018-07-23T15:32:56.834Z,7.40
2018-07-23T15:37:00.051Z,5.50
2018-07-23T15:41:03.321Z,4.90
2018-07-23T15:45:06.615Z,5.78
2018-07-23T15:49:09.852Z,5.17
2018-07-23T15:53:13.154Z,4.95
2018-07-23T15:57:17.010Z,4.80
2018-07-23T16:01:20.278Z,6.03
2018-07-23T16:05:23.567Z,6.67
2018-07-23T16:09:26.757Z,5.12
2018-07-23T16:13:29.996Z,5.50
2018-07-23T16:17:33.257Z,5.60
2018-07-23T16:21:36.523Z,4.97
2018-07-23T16:25:39.780Z,5.40
2018-07-23T16:29:43.022Z,5.37
2018-07-23T16:33:46.277Z,5.28
2018-07-23T16:37:49.529Z,6.65
2018-07-23T16:41:52.814Z,6.10
2018-07-23T16:45:56.114Z,5.12
2018-07-23T16:49:59.397Z,5.72
2018-07-23T16:54:02.770Z,5.62
2018-07-23T16:58:05.995Z,7.72
2018-07-23T17:02:09.265Z,5.78
2018-07-23T17:06:12.514Z,5.55
2018-07-23T17:10:16.094Z,5.42
2018-07-23T17:14:19.938Z,6.08
2018-07-23T17:18:23.610Z,6.22
2018-07-23T17:22:28.853Z,6.42
2018-07-23T17:26:36.030Z,6.55
2018-07-23T17:30:39.606Z,6.35
2018-07-23T17:34:43.357Z,8.20
2018-07-23T17:38:46.907Z,6.30
2018-07-23T17:42:52.454Z,7.65
2018-07-23T17:46:56.186Z,6.37
2018-07-23T17:50:59.999Z,6.08
2018-07-23T17:55:03.943Z,5.47
2018-07-23T17:59:07.775Z,5.50
2018-07-23T18:03:11.074Z,5.92
2018-07-23T18:07:15.675Z,5.90
2018-07-23T18:11:20.466Z,5.67
2018-07-23T18:15:23.773Z,8.48
2018-07-23T18:19:27.571Z,5.72
2018-07-23T18:23:31.261Z,5.87
2018-07-23T18:27:34.914Z,6.12
2018-07-23T18:31:38.737Z,7.45
2018-07-23T18:35:43.128Z,6.45
2018-07-23T18:39:46.977Z,5.83
2018-07-23T18:43:50.701Z,5.90
2018-07-23T18:47:54.207Z,6.65
2018-07-23T18:51:57.870Z,7.87
2018-07-23T18:56:01.520Z,8.03
2018-07-23T19:00:06.195Z,5.72
2018-07-23T19:04:09.841Z,9.15
2018-07-23T19:08:13.141Z,6.22
2018-07-23T19:12:16.434Z,6.40
2018-07-23T19:16:19.533Z,7.67
2018-07-23T19:20:22.928Z,6.80
2018-07-23T19:24:26.463Z,6.30
2018-07-23T19:28:30.753Z,6.10
2018-07-23T19:32:34.441Z,6.70
2018-07-23T19:36:37.836Z,6.30
2018-07-23T19:40:41.759Z,6.87
2018-07-23T19:44:44.958Z,6.92
2018-07-23T19:48:51.283Z,7.20
2018-07-23T19:52:54.565Z,9.93
2018-07-23T19:57:00.127Z,7.70
2018-07-23T20:01:03.585Z,6.83
2018-07-23T20:05:08.613Z,8.58
2018-07-23T20:09:12.616Z,7.62
2018-07-23T20:13:17.287Z,8.65
2018-07-23T20:17:21.957Z,7.15
2018-07-23T20:21:25.196Z,8.38
2018-07-23T20:25:30.077Z,7.62
2018-07-23T20:29:34.462Z,7.45
2018-07-23T20:33:37.789Z,8.30
2018-07-23T20:37:41.050Z,8.05
2018-07-23T20:41:44.350Z,8.25
2018-07-23T20:45:48.714Z,9.13
2018-07-23T20:49:54.548Z,8.05
2018-07-23T20:53:57.850Z,7.83
2018-07-23T20:58:01.109Z,8.08
2018-07-23T21:02:04.424Z,8.15
2018-07-23T21:06:07.680Z,6.67
2018-07-23T21:10:10.923Z,11.05
2018-07-23T21:14:15.039Z,7.42
2018-07-23T21:18:18.427Z,7.22
2018-07-23T21:22:21.711Z,12.00
2018-07-23T21:26:24.966Z,9.00
2018-07-23T21:30:28.236Z,7.20
2018-07-23T21:34:31.477Z,8.03
2018-07-23T21:38:38.810Z,9.63
2018-07-23T21:42:45.852Z,7.42
2018-07-23T21:46:49.177Z,8.73
2018-07-23T21:50:52.433Z,8.13
2018-07-23T21:54:55.827Z,9.85
2018-07-23T21:58:59.290Z,8.30
2018-07-23T22:03:02.551Z,8.03
2018-07-23T22:07:06.098Z,8.20
2018-07-23T22:11:09.381Z,8.13
2018-07-23T22:15:12.649Z,8.98
2018-07-23T22:19:15.884Z,7.75
2018-07-23T22:23:19.145Z,8.35
2018-07-23T22:27:22.454Z,9.48
2018-07-23T22:31:25.760Z,11.30
2018-07-23T22:35:29.033Z,7.75
2018-07-23T22:39:32.375Z,8.05
2018-07-23T22:43:36.381Z,10.43
2018-07-23T22:47:39.649Z,8.38
2018-07-23T22:51:42.931Z,8.80
2018-07-23T22:55:46.224Z,8.28
2018-07-23T22:59:49.522Z,8.28
2018-07-23T23:03:53.669Z,8.45
2018-07-23T23:07:56.941Z,14.68
2018-07-23T23:12:00.237Z,8.58
2018-07-23T23:16:03.552Z,8.50
2018-07-23T23:20:06.814Z,9.07
2018-07-23T23:24:10.053Z,9.13
2018-07-23T23:28:13.325Z,6.43
2018-07-23T23:32:16.561Z,6.67
2018-07-23T23:36:19.794Z,8.93
2018-07-23T23:40:23.727Z,8.87
2018-07-23T23:44:26.986Z,5.37
2018-07-23T23:48:30.248Z,0.00
2018-07-23T23:52:33.506Z,0.03
2018-07-23T23:56:36.754Z,0.00
